sensor_id;sensor_type;location;lat;lon;timestamp;P1;durP1;ratioP1;P2;durP2;ratioP2
23590;SDS011;11973;52.098;7.582;2023-03-01T04:45:36;10.68;;;9.88;;
23590;SDS011;11973;52.098;7.582;2023-03-01T04:48:02;11.07;;;10.05;;
23590;SDS011;11973;52.098;7.582;2023-03-01T04:50:28;9.65;;;8.95;;
23590;SDS011;11973;52.098;7.582;2023-03-01T04:52:54;10.18;;;9.48;;
23590;SDS011;11973;52.098;7.582;2023-03-01T04:55:24;10.40;;;9.60;;
23590;SDS011;11973;52.098;7.582;2023-03-01T04:57:51;11.70;;;10.70;;
23590;SDS011;11973;52.098;7.582;2023-03-01T05:00:18;10.20;;;9.52;;
23590;SDS011;11973;52.098;7.582;2023-03-01T05:05:20;11.07;;;10.25;;
23590;SDS011;11973;52.098;7.582;2023-03-01T05:07:46;11.20;;;10.40;;
23590;SDS011;11973;52.098;7.582;2023-03-01T05:10:12;10.75;;;9.95;;
23590;SDS011;11973;52.098;7.582;2023-03-01T05:12:38;10.70;;;10.00;;
23590;SDS011;11973;52.098;7.582;2023-03-01T05:15:04;11.13;;;10.25;;
23590;SDS011;11973;52.098;7.582;2023-03-01T05:17:32;11.40;;;10.57;;
23590;SDS011;11973;52.098;7.582;2023-03-01T05:19:59;11.55;;;10.48;;
23590;SDS011;11973;52.098;7.582;2023-03-01T05:22:26;11.40;;;10.50;;
23590;SDS011;11973;52.098;7.582;2023-03-01T05:24:52;10.88;;;10.18;;
23590;SDS011;11973;52.098;7.582;2023-03-01T05:27:19;11.93;;;10.93;;
23590;SDS011;11973;52.098;7.582;2023-03-01T05:29:47;11.10;;;10.20;;
23590;SDS011;11973;52.098;7.582;2023-03-01T05:32:13;11.30;;;10.40;;
23590;SDS011;11973;52.098;7.582;2023-03-01T05:34:40;10.88;;;9.93;;
23590;SDS011;11973;52.098;7.582;2023-03-01T05:37:07;11.43;;;10.30;;
23590;SDS011;11973;52.098;7.582;2023-03-01T05:39:33;10.80;;;10.05;;
23590;SDS011;11973;52.098;7.582;2023-03-01T05:42:00;11.38;;;10.60;;
23590;SDS011;11973;52.098;7.582;2023-03-01T05:44:27;11.35;;;10.43;;
23590;SDS011;11973;52.098;7.582;2023-03-01T05:46:54;12.95;;;11.80;;
23590;SDS011;11973;52.098;7.582;2023-03-01T05:49:20;13.40;;;11.52;;
23590;SDS011;11973;52.098;7.582;2023-03-01T05:51:50;12.88;;;11.63;;
23590;SDS011;11973;52.098;7.582;2023-03-01T05:54:17;12.05;;;11.05;;
23590;SDS011;11973;52.098;7.582;2023-03-01T05:56:46;12.82;;;11.82;;
23590;SDS011;11973;52.098;7.582;2023-03-01T05:59:12;13.45;;;12.05;;
23590;SDS011;11973;52.098;7.582;2023-03-01T06:01:40;12.80;;;11.80;;
23590;SDS011;11973;52.098;7.582;2023-03-01T06:04:06;13.00;;;11.90;;
23590;SDS011;11973;52.098;7.582;2023-03-01T06:06:35;12.40;;;11.30;;
23590;SDS011;11973;52.098;7.582;2023-03-01T06:09:03;13.15;;;12.05;;
23590;SDS011;11973;52.098;7.582;2023-03-01T06:11:29;12.90;;;11.90;;
23590;SDS011;11973;52.098;7.582;2023-03-01T06:13:55;13.45;;;12.27;;
23590;SDS011;11973;52.098;7.582;2023-03-01T06:16:21;12.70;;;11.60;;
23590;SDS011;11973;52.098;7.582;2023-03-01T06:18:46;14.27;;;12.98;;
23590;SDS011;11973;52.098;7.582;2023-03-01T06:21:12;13.20;;;12.10;;
23590;SDS011;11973;52.098;7.582;2023-03-01T06:23:38;14.32;;;12.95;;
23590;SDS011;11973;52.098;7.582;2023-03-01T06:26:05;14.73;;;13.35;;
23590;SDS011;11973;52.098;7.582;2023-03-01T06:28:32;15.40;;;13.88;;
23590;SDS011;11973;52.098;7.582;2023-03-01T06:30:57;18.92;;;14.52;;
23590;SDS011;11973;52.098;7.582;2023-03-01T06:33:23;16.02;;;14.32;;
23590;SDS011;11973;52.098;7.582;2023-03-01T06:35:49;15.57;;;14.07;;
23590;SDS011;11973;52.098;7.582;2023-03-01T06:38:16;15.55;;;13.88;;
23590;SDS011;11973;52.098;7.582;2023-03-01T06:40:43;15.48;;;13.98;;
23590;SDS011;11973;52.098;7.582;2023-03-01T06:43:10;14.30;;;13.00;;
23590;SDS011;11973;52.098;7.582;2023-03-01T06:45:36;14.50;;;13.15;;
23590;SDS011;11973;52.098;7.582;2023-03-01T06:48:05;15.48;;;13.30;;
23590;SDS011;11973;52.098;7.582;2023-03-01T06:50:32;14.50;;;13.10;;
23590;SDS011;11973;52.098;7.582;2023-03-01T06:52:58;14.45;;;13.15;;
23590;SDS011;11973;52.098;7.582;2023-03-01T06:55:24;14.60;;;13.15;;
23590;SDS011;11973;52.098;7.582;2023-03-01T06:57:54;14.60;;;13.15;;
23590;SDS011;11973;52.098;7.582;2023-03-01T07:00:24;15.65;;;13.45;;
23590;SDS011;11973;52.098;7.582;2023-03-01T07:02:51;15.50;;;13.88;;
23590;SDS011;11973;52.098;7.582;2023-03-01T07:05:17;15.98;;;13.98;;
23590;SDS011;11973;52.098;7.582;2023-03-01T07:07:42;16.80;;;14.98;;
23590;SDS011;11973;52.098;7.582;2023-03-01T07:10:08;16.25;;;14.65;;
23590;SDS011;11973;52.098;7.582;2023-03-01T07:12:35;19.35;;;16.95;;
23590;SDS011;11973;52.098;7.582;2023-03-01T07:15:01;17.48;;;15.68;;
23590;SDS011;11973;52.098;7.582;2023-03-01T07:17:27;21.55;;;16.67;;
23590;SDS011;11973;52.098;7.582;2023-03-01T07:19:52;19.63;;;17.58;;
23590;SDS011;11973;52.098;7.582;2023-03-01T07:22:18;26.02;;;18.38;;
23590;SDS011;11973;52.098;7.582;2023-03-01T07:24:44;21.90;;;17.85;;
23590;SDS011;11973;52.098;7.582;2023-03-01T07:27:09;21.27;;;18.13;;
23590;SDS011;11973;52.098;7.582;2023-03-01T07:29:35;20.27;;;18.00;;
23590;SDS011;11973;52.098;7.582;2023-03-01T07:32:01;19.85;;;17.75;;
23590;SDS011;11973;52.098;7.582;2023-03-01T07:34:28;21.80;;;17.52;;
23590;SDS011;11973;52.098;7.582;2023-03-01T07:36:54;19.25;;;17.05;;
23590;SDS011;11973;52.098;7.582;2023-03-01T07:39:19;20.33;;;18.00;;
23590;SDS011;11973;52.098;7.582;2023-03-01T07:41:45;23.08;;;17.75;;
23590;SDS011;11973;52.098;7.582;2023-03-01T07:44:11;20.00;;;17.55;;
23590;SDS011;11973;52.098;7.582;2023-03-01T07:46:36;18.20;;;16.48;;
23590;SDS011;11973;52.098;7.582;2023-03-01T07:49:02;18.33;;;16.42;;
23590;SDS011;11973;52.098;7.582;2023-03-01T07:51:29;18.70;;;16.75;;
23590;SDS011;11973;52.098;7.582;2023-03-01T07:53:55;21.85;;;16.98;;
23590;SDS011;11973;52.098;7.582;2023-03-01T07:56:20;18.77;;;16.73;;
23590;SDS011;11973;52.098;7.582;2023-03-01T07:58:47;17.38;;;15.68;;
23590;SDS011;11973;52.098;7.582;2023-03-01T08:01:17;20.17;;;15.80;;
23590;SDS011;11973;52.098;7.582;2023-03-01T08:03:44;16.70;;;14.95;;
23590;SDS011;11973;52.098;7.582;2023-03-01T08:06:11;15.70;;;14.27;;
23590;SDS011;11973;52.098;7.582;2023-03-01T08:08:37;15.30;;;13.77;;
23590;SDS011;11973;52.098;7.582;2023-03-01T08:11:04;14.45;;;13.10;;
23590;SDS011;11973;52.098;7.582;2023-03-01T08:13:31;12.93;;;11.70;;
23590;SDS011;11973;52.098;7.582;2023-03-01T08:16:03;12.80;;;11.55;;
23590;SDS011;11973;52.098;7.582;2023-03-01T08:18:31;12.50;;;11.45;;
23590;SDS011;11973;52.098;7.582;2023-03-01T08:21:01;11.73;;;10.73;;
23590;SDS011;11973;52.098;7.582;2023-03-01T08:23:31;11.70;;;10.70;;
23590;SDS011;11973;52.098;7.582;2023-03-01T08:26:30;11.45;;;10.65;;
23590;SDS011;11973;52.098;7.582;2023-03-01T08:28:49;10.40;;;9.60;;
23590;SDS011;11973;52.098;7.582;2023-03-01T08:33:48;11.13;;;10.18;;
23590;SDS011;11973;52.098;7.582;2023-03-01T08:36:20;10.35;;;9.60;;
23590;SDS011;11973;52.098;7.582;2023-03-01T08:38:46;10.10;;;9.23;;
23590;SDS011;11973;52.098;7.582;2023-03-01T08:41:12;9.23;;;8.60;;
23590;SDS011;11973;52.098;7.582;2023-03-01T08:43:38;9.23;;;8.48;;
23590;SDS011;11973;52.098;7.582;2023-03-01T08:46:04;8.77;;;8.00;;
23590;SDS011;11973;52.098;7.582;2023-03-01T08:48:29;8.55;;;7.78;;
23590;SDS011;11973;52.098;7.582;2023-03-01T08:50:55;8.95;;;8.25;;
23590;SDS011;11973;52.098;7.582;2023-03-01T08:53:21;8.30;;;7.65;;
23590;SDS011;11973;52.098;7.582;2023-03-01T08:55:46;8.45;;;7.85;;
23590;SDS011;11973;52.098;7.582;2023-03-01T08:58:12;8.95;;;8.35;;
23590;SDS011;11973;52.098;7.582;2023-03-01T09:00:38;7.82;;;7.32;;
23590;SDS011;11973;52.098;7.582;2023-03-01T09:03:05;8.77;;;8.18;;
23590;SDS011;11973;52.098;7.582;2023-03-01T09:05:31;8.40;;;7.80;;
23590;SDS011;11973;52.098;7.582;2023-03-01T09:07:58;9.35;;;8.65;;
23590;SDS011;11973;52.098;7.582;2023-03-01T09:10:23;9.77;;;8.88;;
23590;SDS011;11973;52.098;7.582;2023-03-01T09:12:49;9.93;;;9.13;;
23590;SDS011;11973;52.098;7.582;2023-03-01T09:15:16;10.45;;;9.57;;
23590;SDS011;11973;52.098;7.582;2023-03-01T09:17:42;10.85;;;9.85;;
23590;SDS011;11973;52.098;7.582;2023-03-01T09:20:08;11.68;;;10.68;;
23590;SDS011;11973;52.098;7.582;2023-03-01T09:22:34;10.90;;;10.00;;
23590;SDS011;11973;52.098;7.582;2023-03-01T09:25:00;10.75;;;9.77;;
23590;SDS011;11973;52.098;7.582;2023-03-01T09:27:26;10.82;;;9.93;;
23590;SDS011;11973;52.098;7.582;2023-03-01T09:29:51;10.45;;;9.70;;
23590;SDS011;11973;52.098;7.582;2023-03-01T09:32:17;10.82;;;9.82;;
23590;SDS011;11973;52.098;7.582;2023-03-01T09:34:43;10.20;;;9.38;;
23590;SDS011;11973;52.098;7.582;2023-03-01T09:37:30;10.55;;;9.68;;
23590;SDS011;11973;52.098;7.582;2023-03-01T09:39:57;11.38;;;10.38;;
23590;SDS011;11973;52.098;7.582;2023-03-01T09:42:22;10.75;;;9.75;;
23590;SDS011;11973;52.098;7.582;2023-03-01T09:44:54;10.32;;;9.52;;
23590;SDS011;11973;52.098;7.582;2023-03-01T09:47:29;10.25;;;9.55;;
23590;SDS011;11973;52.098;7.582;2023-03-01T09:52:29;10.38;;;9.60;;
23590;SDS011;11973;52.098;7.582;2023-03-01T09:55:08;10.65;;;9.65;;
23590;SDS011;11973;52.098;7.582;2023-03-01T09:57:38;10.05;;;9.25;;
23590;SDS011;11973;52.098;7.582;2023-03-01T10:08:48;9.82;;;9.02;;
23590;SDS011;11973;52.098;7.582;2023-03-01T10:11:26;9.35;;;8.55;;
23590;SDS011;11973;52.098;7.582;2023-03-01T10:13:59;9.63;;;8.73;;
23590;SDS011;11973;52.098;7.582;2023-03-01T10:19:15;8.38;;;7.88;;
23590;SDS011;11973;52.098;7.582;2023-03-01T10:21:47;8.43;;;7.78;;
23590;SDS011;11973;52.098;7.582;2023-03-01T10:24:16;8.00;;;7.38;;
23590;SDS011;11973;52.098;7.582;2023-03-01T10:26:53;7.90;;;7.40;;
23590;SDS011;11973;52.098;7.582;2023-03-01T10:29:31;7.35;;;7.00;;
23590;SDS011;11973;52.098;7.582;2023-03-01T10:32:04;7.65;;;7.25;;
23590;SDS011;11973;52.098;7.582;2023-03-01T10:34:34;7.32;;;7.00;;
23590;SDS011;11973;52.098;7.582;2023-03-01T10:37:08;7.43;;;7.00;;
23590;SDS011;11973;52.098;7.582;2023-03-01T10:39:36;7.10;;;6.70;;
23590;SDS011;11973;52.098;7.582;2023-03-01T10:42:07;7.50;;;7.05;;
23590;SDS011;11973;52.098;7.582;2023-03-01T10:44:48;7.25;;;6.85;;
23590;SDS011;11973;52.098;7.582;2023-03-01T10:47:19;8.05;;;7.55;;
23590;SDS011;11973;52.098;7.582;2023-03-01T10:49:51;6.95;;;6.60;;
23590;SDS011;11973;52.098;7.582;2023-03-01T10:52:18;7.20;;;6.80;;
23590;SDS011;11973;52.098;7.582;2023-03-01T10:54:56;7.50;;;7.10;;
23590;SDS011;11973;52.098;7.582;2023-03-01T10:57:42;7.00;;;6.50;;
23590;SDS011;11973;52.098;7.582;2023-03-01T11:03:22;7.18;;;6.72;;
23590;SDS011;11973;52.098;7.582;2023-03-01T11:08:34;6.57;;;6.18;;
23590;SDS011;11973;52.098;7.582;2023-03-01T11:11:06;7.28;;;6.88;;
23590;SDS011;11973;52.098;7.582;2023-03-01T11:13:32;6.53;;;6.32;;
23590;SDS011;11973;52.098;7.582;2023-03-01T11:15:59;6.82;;;6.43;;
23590;SDS011;11973;52.098;7.582;2023-03-01T11:18:35;6.13;;;5.93;;
23590;SDS011;11973;52.098;7.582;2023-03-01T11:21:00;6.22;;;5.82;;
23590;SDS011;11973;52.098;7.582;2023-03-01T11:23:28;6.38;;;5.97;;
23590;SDS011;11973;52.098;7.582;2023-03-01T11:25:56;5.97;;;5.57;;
23590;SDS011;11973;52.098;7.582;2023-03-01T11:28:32;6.43;;;6.03;;
23590;SDS011;11973;52.098;7.582;2023-03-01T11:31:05;5.60;;;5.50;;
23590;SDS011;11973;52.098;7.582;2023-03-01T11:36:41;5.70;;;5.53;;
23590;SDS011;11973;52.098;7.582;2023-03-01T11:39:20;5.78;;;5.40;;
23590;SDS011;11973;52.098;7.582;2023-03-01T11:42:02;5.28;;;5.07;;
23590;SDS011;11973;52.098;7.582;2023-03-01T11:44:48;5.05;;;4.93;;
23590;SDS011;11973;52.098;7.582;2023-03-01T12:03:24;5.45;;;5.20;;
23590;SDS011;11973;52.098;7.582;2023-03-01T12:22:32;4.70;;;4.50;;
23590;SDS011;11973;52.098;7.582;2023-03-01T12:25:21;4.60;;;4.40;;
23590;SDS011;11973;52.098;7.582;2023-03-01T12:27:57;4.45;;;4.25;;
23590;SDS011;11973;52.098;7.582;2023-03-01T12:38:37;4.82;;;4.72;;
23590;SDS011;11973;52.098;7.582;2023-03-01T12:49:34;4.50;;;4.40;;
23590;SDS011;11973;52.098;7.582;2023-03-01T12:52:14;5.05;;;4.75;;
23590;SDS011;11973;52.098;7.582;2023-03-01T12:54:41;4.63;;;4.53;;
23590;SDS011;11973;52.098;7.582;2023-03-01T13:08:36;4.82;;;4.65;;
23590;SDS011;11973;52.098;7.582;2023-03-01T13:11:20;5.35;;;5.15;;
23590;SDS011;11973;52.098;7.582;2023-03-01T13:13:47;5.20;;;5.10;;
23590;SDS011;11973;52.098;7.582;2023-03-01T13:16:56;5.28;;;5.10;;
23590;SDS011;11973;52.098;7.582;2023-03-01T13:19:06;5.10;;;4.90;;
23590;SDS011;11973;52.098;7.582;2023-03-01T13:21:38;5.60;;;5.32;;
23590;SDS011;11973;52.098;7.582;2023-03-01T13:24:04;5.68;;;5.30;;
23590;SDS011;11973;52.098;7.582;2023-03-01T13:32:34;4.55;;;4.45;;
23590;SDS011;11973;52.098;7.582;2023-03-01T13:35:00;5.15;;;4.93;;
23590;SDS011;11973;52.098;7.582;2023-03-01T13:37:30;4.40;;;4.10;;
23590;SDS011;11973;52.098;7.582;2023-03-01T13:40:04;3.92;;;3.92;;
23590;SDS011;11973;52.098;7.582;2023-03-01T13:42:47;4.18;;;3.88;;
23590;SDS011;11973;52.098;7.582;2023-03-01T13:45:15;3.95;;;3.85;;
23590;SDS011;11973;52.098;7.582;2023-03-01T13:47:49;4.00;;;3.85;;
23590;SDS011;11973;52.098;7.582;2023-03-01T13:50:20;4.28;;;4.18;;
23590;SDS011;11973;52.098;7.582;2023-03-01T13:55:30;3.80;;;3.70;;
23590;SDS011;11973;52.098;7.582;2023-03-01T13:58:44;3.45;;;3.45;;
23590;SDS011;11973;52.098;7.582;2023-03-01T14:01:24;3.50;;;3.40;;
23590;SDS011;11973;52.098;7.582;2023-03-01T14:03:50;3.47;;;3.38;;
23590;SDS011;11973;52.098;7.582;2023-03-01T14:06:17;4.35;;;3.90;;
23590;SDS011;11973;52.098;7.582;2023-03-01T14:08:46;3.60;;;3.50;;
23590;SDS011;11973;52.098;7.582;2023-03-01T14:19:33;3.40;;;3.40;;
23590;SDS011;11973;52.098;7.582;2023-03-01T14:22:04;3.80;;;3.58;;
23590;SDS011;11973;52.098;7.582;2023-03-01T14:24:51;3.80;;;3.60;;
23590;SDS011;11973;52.098;7.582;2023-03-01T14:27:20;4.68;;;4.43;;
23590;SDS011;11973;52.098;7.582;2023-03-01T14:29:57;4.35;;;4.25;;
23590;SDS011;11973;52.098;7.582;2023-03-01T14:32:29;4.22;;;4.10;;
23590;SDS011;11973;52.098;7.582;2023-03-01T14:34:56;3.58;;;3.47;;
23590;SDS011;11973;52.098;7.582;2023-03-01T14:37:30;3.20;;;3.10;;
23590;SDS011;11973;52.098;7.582;2023-03-01T14:39:58;3.20;;;3.20;;
23590;SDS011;11973;52.098;7.582;2023-03-01T14:42:31;3.80;;;3.50;;
23590;SDS011;11973;52.098;7.582;2023-03-01T14:45:01;3.10;;;3.05;;
23590;SDS011;11973;52.098;7.582;2023-03-01T14:52:31;3.60;;;3.50;;
23590;SDS011;11973;52.098;7.582;2023-03-01T14:54:59;2.72;;;2.72;;
23590;SDS011;11973;52.098;7.582;2023-03-01T14:57:30;3.45;;;3.15;;
23590;SDS011;11973;52.098;7.582;2023-03-01T15:00:00;3.08;;;2.97;;
23590;SDS011;11973;52.098;7.582;2023-03-01T15:02:30;2.85;;;2.85;;
23590;SDS011;11973;52.098;7.582;2023-03-01T15:04:58;2.90;;;2.90;;
23590;SDS011;11973;52.098;7.582;2023-03-01T15:07:27;2.97;;;2.88;;
23590;SDS011;11973;52.098;7.582;2023-03-01T15:09:57;2.92;;;2.80;;
23590;SDS011;11973;52.098;7.582;2023-03-01T15:14:52;2.90;;;2.90;;
23590;SDS011;11973;52.098;7.582;2023-03-01T15:17:30;2.60;;;2.60;;
23590;SDS011;11973;52.098;7.582;2023-03-01T15:19:56;2.70;;;2.70;;
23590;SDS011;11973;52.098;7.582;2023-03-01T15:22:23;2.25;;;2.25;;
23590;SDS011;11973;52.098;7.582;2023-03-01T15:24:51;2.78;;;2.58;;
23590;SDS011;11973;52.098;7.582;2023-03-01T15:27:19;2.42;;;2.42;;
23590;SDS011;11973;52.098;7.582;2023-03-01T15:30:04;2.28;;;2.28;;
23590;SDS011;11973;52.098;7.582;2023-03-01T15:32:35;2.78;;;2.67;;
23590;SDS011;11973;52.098;7.582;2023-03-01T15:38:23;2.47;;;2.38;;
23590;SDS011;11973;52.098;7.582;2023-03-01T15:40:52;2.40;;;2.40;;
23590;SDS011;11973;52.098;7.582;2023-03-01T15:46:12;2.83;;;2.80;;
23590;SDS011;11973;52.098;7.582;2023-03-01T15:48:46;2.65;;;2.65;;
23590;SDS011;11973;52.098;7.582;2023-03-01T15:51:14;3.25;;;3.25;;
23590;SDS011;11973;52.098;7.582;2023-03-01T15:53:42;3.10;;;3.10;;
23590;SDS011;11973;52.098;7.582;2023-03-01T15:56:13;4.60;;;2.90;;
23590;SDS011;11973;52.098;7.582;2023-03-01T15:58:38;3.38;;;3.20;;
23590;SDS011;11973;52.098;7.582;2023-03-01T16:01:08;5.30;;;4.95;;
23590;SDS011;11973;52.098;7.582;2023-03-01T16:03:37;4.40;;;4.30;;
23590;SDS011;11973;52.098;7.582;2023-03-01T16:06:04;14.25;;;12.55;;
23590;SDS011;11973;52.098;7.582;2023-03-01T16:08:30;8.75;;;8.15;;
23590;SDS011;11973;52.098;7.582;2023-03-01T16:10:56;9.98;;;9.18;;
23590;SDS011;11973;52.098;7.582;2023-03-01T16:13:21;6.30;;;5.90;;
23590;SDS011;11973;52.098;7.582;2023-03-01T16:15:48;5.38;;;5.15;;
23590;SDS011;11973;52.098;7.582;2023-03-01T16:18:14;4.07;;;3.88;;
23590;SDS011;11973;52.098;7.582;2023-03-01T16:20:40;2.65;;;2.65;;
23590;SDS011;11973;52.098;7.582;2023-03-01T16:23:06;3.50;;;3.40;;
23590;SDS011;11973;52.098;7.582;2023-03-01T16:25:33;3.55;;;3.50;;
23590;SDS011;11973;52.098;7.582;2023-03-01T16:28:00;2.80;;;2.70;;
23590;SDS011;11973;52.098;7.582;2023-03-01T16:30:29;3.05;;;3.05;;
23590;SDS011;11973;52.098;7.582;2023-03-01T16:32:55;3.72;;;3.53;;
23590;SDS011;11973;52.098;7.582;2023-03-01T16:35:21;3.83;;;3.72;;
23590;SDS011;11973;52.098;7.582;2023-03-01T16:37:48;3.05;;;3.05;;
23590;SDS011;11973;52.098;7.582;2023-03-01T16:40:19;2.75;;;2.58;;
23590;SDS011;11973;52.098;7.582;2023-03-01T16:42:51;2.60;;;2.60;;
23590;SDS011;11973;52.098;7.582;2023-03-01T16:45:17;3.75;;;3.40;;
23590;SDS011;11973;52.098;7.582;2023-03-01T16:47:44;2.78;;;2.75;;
23590;SDS011;11973;52.098;7.582;2023-03-01T16:50:10;2.85;;;2.83;;
23590;SDS011;11973;52.098;7.582;2023-03-01T16:52:37;3.35;;;3.35;;
23590;SDS011;11973;52.098;7.582;2023-03-01T16:55:03;4.00;;;3.90;;
23590;SDS011;11973;52.098;7.582;2023-03-01T16:57:33;3.97;;;3.80;;
23590;SDS011;11973;52.098;7.582;2023-03-01T16:59:59;3.90;;;3.80;;
23590;SDS011;11973;52.098;7.582;2023-03-01T17:02:25;5.25;;;5.05;;
23590;SDS011;11973;52.098;7.582;2023-03-01T17:04:51;5.38;;;5.10;;
23590;SDS011;11973;52.098;7.582;2023-03-01T17:07:18;9.15;;;8.32;;
23590;SDS011;11973;52.098;7.582;2023-03-01T17:09:44;5.13;;;4.82;;
23590;SDS011;11973;52.098;7.582;2023-03-01T17:12:13;4.03;;;3.88;;
23590;SDS011;11973;52.098;7.582;2023-03-01T17:14:40;4.28;;;4.07;;
23590;SDS011;11973;52.098;7.582;2023-03-01T17:17:09;4.18;;;3.97;;
23590;SDS011;11973;52.098;7.582;2023-03-01T17:19:36;4.90;;;4.70;;
23590;SDS011;11973;52.098;7.582;2023-03-01T17:22:08;8.20;;;7.40;;
23590;SDS011;11973;52.098;7.582;2023-03-01T17:24:36;10.85;;;9.93;;
23590;SDS011;11973;52.098;7.582;2023-03-01T17:27:03;6.18;;;5.95;;
23590;SDS011;11973;52.098;7.582;2023-03-01T17:29:30;7.68;;;7.07;;
23590;SDS011;11973;52.098;7.582;2023-03-01T17:31:56;7.57;;;7.15;;
23590;SDS011;11973;52.098;7.582;2023-03-01T17:34:22;7.05;;;6.53;;
23590;SDS011;11973;52.098;7.582;2023-03-01T17:36:49;7.45;;;6.95;;
23590;SDS011;11973;52.098;7.582;2023-03-01T17:39:16;15.15;;;12.32;;
23590;SDS011;11973;52.098;7.582;2023-03-01T17:41:45;13.88;;;12.38;;
23590;SDS011;11973;52.098;7.582;2023-03-01T17:44:11;9.38;;;8.68;;
23590;SDS011;11973;52.098;7.582;2023-03-01T17:46:37;5.85;;;5.60;;
23590;SDS011;11973;52.098;7.582;2023-03-01T17:49:02;4.75;;;4.50;;
23590;SDS011;11973;52.098;7.582;2023-03-01T17:51:31;4.97;;;4.90;;
23590;SDS011;11973;52.098;7.582;2023-03-01T17:53:56;5.70;;;5.50;;
23590;SDS011;11973;52.098;7.582;2023-03-01T17:56:22;6.15;;;5.85;;
23590;SDS011;11973;52.098;7.582;2023-03-01T17:58:48;6.18;;;5.95;;
23590;SDS011;11973;52.098;7.582;2023-03-01T18:01:15;6.75;;;6.25;;
23590;SDS011;11973;52.098;7.582;2023-03-01T18:03:43;6.47;;;6.10;;
23590;SDS011;11973;52.098;7.582;2023-03-01T18:06:19;6.28;;;5.97;;
23590;SDS011;11973;52.098;7.582;2023-03-01T18:08:47;6.45;;;6.22;;
23590;SDS011;11973;52.098;7.582;2023-03-01T18:11:15;6.32;;;6.03;;
23590;SDS011;11973;52.098;7.582;2023-03-01T18:13:42;6.78;;;6.43;;
23590;SDS011;11973;52.098;7.582;2023-03-01T18:16:09;6.07;;;5.85;;
23590;SDS011;11973;52.098;7.582;2023-03-01T18:18:37;6.15;;;5.95;;
23590;SDS011;11973;52.098;7.582;2023-03-01T18:21:04;7.00;;;6.57;;
23590;SDS011;11973;52.098;7.582;2023-03-01T18:23:31;7.57;;;6.97;;
23590;SDS011;11973;52.098;7.582;2023-03-01T18:25:58;7.43;;;7.03;;
23590;SDS011;11973;52.098;7.582;2023-03-01T18:28:30;8.32;;;7.72;;
23590;SDS011;11973;52.098;7.582;2023-03-01T18:30:57;8.15;;;7.65;;
23590;SDS011;11973;52.098;7.582;2023-03-01T18:33:24;9.85;;;8.85;;
23590;SDS011;11973;52.098;7.582;2023-03-01T18:35:51;11.18;;;8.88;;
23590;SDS011;11973;52.098;7.582;2023-03-01T18:38:17;9.20;;;8.50;;
23590;SDS011;11973;52.098;7.582;2023-03-01T18:40:43;9.75;;;8.85;;
23590;SDS011;11973;52.098;7.582;2023-03-01T18:43:09;9.50;;;8.80;;
23590;SDS011;11973;52.098;7.582;2023-03-01T18:45:36;9.93;;;9.05;;
23590;SDS011;11973;52.098;7.582;2023-03-01T18:48:02;9.43;;;8.73;;
23590;SDS011;11973;52.098;7.582;2023-03-01T18:50:28;10.48;;;9.68;;
23590;SDS011;11973;52.098;7.582;2023-03-01T18:52:54;9.43;;;8.73;;
23590;SDS011;11973;52.098;7.582;2023-03-01T18:55:20;9.80;;;8.82;;
23590;SDS011;11973;52.098;7.582;2023-03-01T18:57:46;8.48;;;7.88;;
23590;SDS011;11973;52.098;7.582;2023-03-01T19:00:12;8.10;;;7.60;;
23590;SDS011;11973;52.098;7.582;2023-03-01T19:02:38;11.02;;;9.68;;
23590;SDS011;11973;52.098;7.582;2023-03-01T19:05:04;11.13;;;9.77;;
23590;SDS011;11973;52.098;7.582;2023-03-01T19:07:30;9.65;;;8.82;;
23590;SDS011;11973;52.098;7.582;2023-03-01T19:09:56;8.45;;;7.88;;
23590;SDS011;11973;52.098;7.582;2023-03-01T19:12:22;8.57;;;7.97;;
23590;SDS011;11973;52.098;7.582;2023-03-01T19:14:48;10.23;;;9.30;;
23590;SDS011;11973;52.098;7.582;2023-03-01T19:17:15;13.48;;;11.30;;
23590;SDS011;11973;52.098;7.582;2023-03-01T19:19:41;12.30;;;10.55;;
23590;SDS011;11973;52.098;7.582;2023-03-01T19:22:07;12.93;;;10.55;;
23590;SDS011;11973;52.098;7.582;2023-03-01T19:24:33;12.70;;;11.50;;
23590;SDS011;11973;52.098;7.582;2023-03-01T19:27:00;12.13;;;11.07;;
23590;SDS011;11973;52.098;7.582;2023-03-01T19:29:25;12.80;;;11.50;;
23590;SDS011;11973;52.098;7.582;2023-03-01T19:31:51;12.25;;;11.00;;
23590;SDS011;11973;52.098;7.582;2023-03-01T19:34:17;10.35;;;9.43;;
23590;SDS011;11973;52.098;7.582;2023-03-01T19:36:43;9.65;;;8.85;;
23590;SDS011;11973;52.098;7.582;2023-03-01T19:39:10;10.80;;;9.70;;
23590;SDS011;11973;52.098;7.582;2023-03-01T19:41:37;10.20;;;9.20;;
23590;SDS011;11973;52.098;7.582;2023-03-01T19:44:04;8.75;;;7.90;;
23590;SDS011;11973;52.098;7.582;2023-03-01T19:46:31;8.20;;;7.50;;
23590;SDS011;11973;52.098;7.582;2023-03-01T19:48:57;8.48;;;7.78;;
23590;SDS011;11973;52.098;7.582;2023-03-01T19:51:25;8.70;;;7.90;;
23590;SDS011;11973;52.098;7.582;2023-03-01T19:53:51;9.07;;;8.18;;
23590;SDS011;11973;52.098;7.582;2023-03-01T19:56:17;7.65;;;7.15;;
23590;SDS011;11973;52.098;7.582;2023-03-01T19:58:43;7.38;;;6.97;;
23590;SDS011;11973;52.098;7.582;2023-03-01T20:01:15;7.30;;;6.80;;
23590;SDS011;11973;52.098;7.582;2023-03-01T20:03:43;6.90;;;6.60;;
23590;SDS011;11973;52.098;7.582;2023-03-01T20:06:10;7.13;;;6.82;;
23590;SDS011;11973;52.098;7.582;2023-03-01T20:08:38;10.00;;;9.10;;
23590;SDS011;11973;52.098;7.582;2023-03-01T20:11:04;10.43;;;9.63;;
23590;SDS011;11973;52.098;7.582;2023-03-01T20:13:32;9.82;;;9.15;;
23590;SDS011;11973;52.098;7.582;2023-03-01T20:15:59;9.93;;;9.20;;
23590;SDS011;11973;52.098;7.582;2023-03-01T20:18:25;9.55;;;8.98;;
23590;SDS011;11973;52.098;7.582;2023-03-01T20:20:51;11.05;;;10.07;;
23590;SDS011;11973;52.098;7.582;2023-03-01T20:23:17;9.30;;;8.60;;
23590;SDS011;11973;52.098;7.582;2023-03-01T20:25:44;10.40;;;9.70;;
23590;SDS011;11973;52.098;7.582;2023-03-01T20:28:13;10.48;;;9.77;;
23590;SDS011;11973;52.098;7.582;2023-03-01T20:30:41;10.90;;;10.15;;
23590;SDS011;11973;52.098;7.582;2023-03-01T20:33:08;10.90;;;10.10;;
23590;SDS011;11973;52.098;7.582;2023-03-01T20:35:34;10.18;;;9.38;;
23590;SDS011;11973;52.098;7.582;2023-03-01T20:38:00;10.60;;;9.80;;
23590;SDS011;11973;52.098;7.582;2023-03-01T20:40:27;9.88;;;9.27;;
23590;SDS011;11973;52.098;7.582;2023-03-01T20:42:56;9.38;;;8.73;;
23590;SDS011;11973;52.098;7.582;2023-03-01T20:45:22;9.23;;;8.52;;
23590;SDS011;11973;52.098;7.582;2023-03-01T20:47:49;9.25;;;8.63;;
23590;SDS011;11973;52.098;7.582;2023-03-01T20:50:15;10.60;;;9.70;;
23590;SDS011;11973;52.098;7.582;2023-03-01T20:52:42;9.73;;;8.98;;
23590;SDS011;11973;52.098;7.582;2023-03-01T20:55:08;9.93;;;9.13;;
23590;SDS011;11973;52.098;7.582;2023-03-01T20:57:35;10.25;;;9.00;;
23590;SDS011;11973;52.098;7.582;2023-03-01T21:00:03;8.70;;;7.97;;
23590;SDS011;11973;52.098;7.582;2023-03-01T21:02:30;8.82;;;8.23;;
23590;SDS011;11973;52.098;7.582;2023-03-01T21:04:56;8.55;;;7.88;;
23590;SDS011;11973;52.098;7.582;2023-03-01T21:07:22;8.45;;;7.65;;
23590;SDS011;11973;52.098;7.582;2023-03-01T21:09:48;7.55;;;7.15;;
23590;SDS011;11973;52.098;7.582;2023-03-01T21:12:13;8.48;;;7.80;;
23590;SDS011;11973;52.098;7.582;2023-03-01T21:14:39;8.73;;;7.93;;
23590;SDS011;11973;52.098;7.582;2023-03-01T21:17:09;11.93;;;10.57;;
23590;SDS011;11973;52.098;7.582;2023-03-01T21:19:38;10.77;;;9.77;;
23590;SDS011;11973;52.098;7.582;2023-03-01T21:22:05;11.88;;;10.63;;
23590;SDS011;11973;52.098;7.582;2023-03-01T21:24:31;15.02;;;11.23;;
23590;SDS011;11973;52.098;7.582;2023-03-01T21:26:57;16.02;;;12.88;;
23590;SDS011;11973;52.098;7.582;2023-03-01T21:29:23;19.85;;;13.95;;